createdAt,value
2022-10-09T00:05:50.557Z,5.68
2022-10-09T00:15:55.070Z,8.90
2022-10-09T00:26:01.084Z,5.20
2022-10-09T00:36:08.598Z,5.60
2022-10-09T00:46:21.519Z,5.80
2022-10-09T00:56:25.181Z,5.00
2022-10-09T01:06:43.288Z,5.13
2022-10-09T01:16:53.604Z,6.13
2022-10-09T01:27:05.640Z,5.80
2022-10-09T01:37:13.490Z,5.70
2022-10-09T01:47:23.906Z,6.73
2022-10-09T01:57:39.907Z,6.03
2022-10-09T02:07:42.135Z,6.03
2022-10-09T02:17:46.954Z,5.63
2022-10-09T02:27:48.908Z,6.33
2022-10-09T02:37:51.278Z,6.33
2022-10-09T02:47:53.659Z,5.87
2022-10-09T02:57:58.227Z,7.00
2022-10-09T03:08:02.833Z,7.20
2022-10-09T03:18:04.998Z,7.43
2022-10-09T03:28:10.392Z,7.80
2022-10-09T03:38:17.086Z,6.77
2022-10-09T03:48:21.582Z,7.80
2022-10-09T03:58:28.388Z,7.67
2022-10-09T04:08:33.115Z,7.57
2022-10-09T04:18:37.303Z,7.53
2022-10-09T04:28:39.783Z,8.53
2022-10-09T04:38:41.958Z,8.90
2022-10-09T04:48:46.840Z,8.17
2022-10-09T04:58:51.447Z,10.00
2022-10-09T05:08:56.562Z,10.10
2022-10-09T05:19:00.132Z,10.97
2022-10-09T05:29:09.549Z,10.50
2022-10-09T05:39:16.246Z,11.30
2022-10-09T05:49:27.580Z,10.60
2022-10-09T05:59:29.595Z,10.47
2022-10-09T06:09:38.838Z,10.63
2022-10-09T06:19:43.831Z,10.83
2022-10-09T06:29:48.566Z,9.80
2022-10-09T06:39:50.657Z,10.53
2022-10-09T06:49:57.449Z,11.30
2022-10-09T06:59:59.802Z,11.93
2022-10-09T07:10:01.855Z,8.43
2022-10-09T07:20:04.077Z,4.80
2022-10-09T07:30:08.522Z,3.70
2022-10-09T07:40:16.996Z,4.10
2022-10-09T07:50:21.242Z,4.47
2022-10-09T08:00:25.776Z,5.70
2022-10-09T08:10:32.468Z,6.00
2022-10-09T08:20:36.533Z,6.53
2022-10-09T08:30:40.229Z,6.93
2022-10-09T08:40:53.833Z,5.80
2022-10-09T08:51:00.356Z,6.50
2022-10-09T09:01:22.196Z,4.70
2022-10-09T09:11:42.596Z,6.10
2022-10-09T09:21:52.399Z,8.10
2022-10-09T09:32:02.375Z,7.80
2022-10-09T09:42:07.353Z,7.82
2022-10-09T09:52:12.127Z,4.68
2022-10-09T10:02:19.504Z,4.80
2022-10-09T10:12:25.008Z,5.00
2022-10-09T10:22:28.307Z,5.63
2022-10-09T10:32:34.601Z,5.03
2022-10-09T10:43:08.166Z,7.80
2022-10-09T10:53:26.636Z,7.15
2022-10-09T11:03:42.900Z,3.78
2022-10-09T11:13:59.442Z,3.40
2022-10-09T11:24:57.027Z,3.50
2022-10-09T11:35:04.205Z,4.32
2022-10-09T11:45:16.539Z,5.63
2022-10-09T11:55:22.861Z,6.00
2022-10-09T12:05:29.913Z,5.30
2022-10-09T12:15:53.844Z,4.95
2022-10-09T12:25:56.551Z,4.30
2022-10-09T12:36:30.352Z,3.63
2022-10-09T12:46:37.233Z,3.67
2022-10-09T12:56:42.476Z,3.83
2022-10-09T13:06:50.074Z,3.90
2022-10-09T13:16:52.204Z,4.15
2022-10-09T13:26:56.586Z,3.90
2022-10-09T13:37:03.207Z,4.00
2022-10-09T13:47:09.978Z,4.20
2022-10-09T13:57:12.372Z,3.97
2022-10-09T14:07:16.874Z,4.07
2022-10-09T14:17:19.151Z,4.68
2022-10-09T14:27:21.355Z,5.40
2022-10-09T14:37:41.011Z,4.00
2022-10-09T14:47:44.044Z,3.73
2022-10-09T14:57:48.685Z,3.95
2022-10-09T15:07:50.937Z,4.17
2022-10-09T15:17:55.432Z,4.80
2022-10-09T15:28:03.781Z,4.87
2022-10-09T15:38:09.222Z,4.60
2022-10-09T15:48:18.955Z,5.30
2022-10-09T15:58:25.688Z,5.53
2022-10-09T16:08:30.101Z,5.47
2022-10-09T16:18:34.715Z,5.63
2022-10-09T16:28:44.446Z,4.80
2022-10-09T16:38:49.073Z,5.10
2022-10-09T16:48:59.330Z,5.60
2022-10-09T16:59:06.212Z,6.20
2022-10-09T17:09:14.521Z,5.60
2022-10-09T17:19:20.071Z,5.40
2022-10-09T17:29:28.482Z,5.63
2022-10-09T17:39:35.361Z,5.13
2022-10-09T17:49:39.667Z,4.80
2022-10-09T17:59:42.061Z,5.53
2022-10-09T18:09:50.597Z,5.50
2022-10-09T18:19:56.234Z,6.10
2022-10-09T18:30:01.228Z,6.70
2022-10-09T18:40:06.088Z,6.37
2022-10-09T18:50:10.457Z,7.53
2022-10-09T19:00:17.878Z,7.20
2022-10-09T19:10:22.634Z,8.17
2022-10-09T19:20:27.947Z,9.97
2022-10-09T19:30:30.045Z,9.63
2022-10-09T19:40:34.778Z,10.80
2022-10-09T19:50:46.475Z,9.70
2022-10-09T20:00:49.156Z,10.47
2022-10-09T20:10:51.134Z,9.47
2022-10-09T20:20:53.196Z,9.73
2022-10-09T20:31:00.478Z,10.30
2022-10-09T20:41:08.928Z,9.50
2022-10-09T20:51:19.345Z,11.63
2022-10-09T21:01:28.439Z,11.13
2022-10-09T21:11:35.454Z,10.37
2022-10-09T21:21:39.307Z,10.83
2022-10-09T21:31:45.555Z,9.13
2022-10-09T21:41:53.968Z,9.23
2022-10-09T21:51:58.287Z,10.00
2022-10-09T22:02:03.073Z,11.90
2022-10-09T22:12:05.168Z,11.30
2022-10-09T22:22:10.719Z,10.40
2022-10-09T22:32:17.946Z,11.20
2022-10-09T22:42:19.937Z,11.80
2022-10-09T22:52:21.923Z,12.17
2022-10-09T23:02:23.996Z,11.27
2022-10-09T23:12:28.163Z,11.83
2022-10-09T23:22:35.343Z,11.23
2022-10-09T23:32:37.374Z,11.77
2022-10-09T23:42:41.865Z,12.23
2022-10-09T23:52:46.935Z,11.67
